createdAt,value
2023-03-21T00:01:50.645Z,100413.28
2023-03-21T00:04:19.278Z,100408.38
2023-03-21T00:06:46.638Z,100412.75
2023-03-21T00:09:13.969Z,100412.22
2023-03-21T00:11:41.507Z,100414.59
2023-03-21T00:14:14.327Z,100414.84
2023-03-21T00:16:45.620Z,100418.38
2023-03-21T00:19:14.458Z,100420.41
2023-03-21T00:22:03.301Z,100413.22
2023-03-21T00:24:31.336Z,100421.06
2023-03-21T00:27:12.482Z,100423.22
2023-03-21T00:29:45.933Z,100421.34
2023-03-21T00:32:13.556Z,100428.22
2023-03-21T00:34:57.087Z,100426.97
2023-03-21T00:37:29.410Z,100427.19
2023-03-21T00:39:56.750Z,100431.69
2023-03-21T00:42:24.113Z,100427.94
2023-03-21T00:44:51.413Z,100422.66
2023-03-21T00:47:18.753Z,100415.78
2023-03-21T00:49:46.071Z,100419.75
2023-03-21T00:52:18.582Z,100415.34
2023-03-21T00:54:53.261Z,100414.28
2023-03-21T00:57:29.370Z,100409.78
2023-03-21T00:59:59.802Z,100406.13
2023-03-21T01:02:27.246Z,100405.22
2023-03-21T01:04:54.601Z,100409.31
2023-03-21T01:07:22.023Z,100418.59
2023-03-21T01:09:50.825Z,100414.38
2023-03-21T01:12:19.431Z,100412.47
2023-03-21T01:14:46.690Z,100427.47
2023-03-21T01:17:13.956Z,100427.84
2023-03-21T01:19:51.494Z,100422.81
2023-03-21T01:22:19.306Z,100422.44
2023-03-21T01:24:55.156Z,100425.66
2023-03-21T01:27:25.775Z,100421.22
2023-03-21T01:29:53.043Z,100420.72
2023-03-21T01:32:20.324Z,100425.06
2023-03-21T01:34:47.620Z,100420.94
2023-03-21T01:37:17.665Z,100424.97
2023-03-21T01:39:44.927Z,100419.03
2023-03-21T01:42:14.087Z,100427.47
2023-03-21T01:44:54.730Z,100420.16
2023-03-21T01:47:22.615Z,100423.88
2023-03-21T01:49:52.579Z,100423.13
2023-03-21T01:52:35.797Z,100418.81
2023-03-21T01:55:05.427Z,100419.19
2023-03-21T01:57:42.401Z,100422.28
2023-03-21T02:00:15.150Z,100423.28
2023-03-21T02:02:58.057Z,100411.00
2023-03-21T02:05:34.314Z,100413.53
2023-03-21T02:08:01.890Z,100405.44
2023-03-21T02:10:30.898Z,100399.50
2023-03-21T02:13:09.464Z,100401.41
2023-03-21T02:15:39.158Z,100400.94
2023-03-21T02:18:11.262Z,100405.25
2023-03-21T02:20:56.598Z,100410.50
2023-03-21T02:23:48.473Z,100404.31
2023-03-21T02:26:28.474Z,100407.06
2023-03-21T02:29:03.885Z,100398.78
2023-03-21T02:31:42.116Z,100394.13
2023-03-21T02:34:28.237Z,100394.06
2023-03-21T02:37:05.696Z,100398.56
2023-03-21T02:39:41.171Z,100396.44
2023-03-21T02:42:10.060Z,100393.47
2023-03-21T02:44:42.828Z,100405.50
2023-03-21T02:47:12.775Z,100401.34
2023-03-21T02:49:43.463Z,100406.09
2023-03-21T02:52:25.500Z,100400.97
2023-03-21T02:55:00.980Z,100399.63
2023-03-21T02:57:40.157Z,100401.03
2023-03-21T03:00:16.547Z,100401.91
2023-03-21T03:02:44.127Z,100402.78
2023-03-21T03:05:21.364Z,100405.00
2023-03-21T03:07:57.515Z,100401.16
2023-03-21T03:10:32.416Z,100408.41
2023-03-21T03:13:06.270Z,100400.50
2023-03-21T03:15:38.507Z,100395.91
2023-03-21T03:18:10.265Z,100406.31
2023-03-21T03:20:45.328Z,100399.63
2023-03-21T03:23:20.326Z,100402.69
2023-03-21T03:25:50.213Z,100400.22
2023-03-21T03:28:19.050Z,100398.09
2023-03-21T03:31:05.140Z,100393.50
2023-03-21T03:33:37.065Z,100393.34
2023-03-21T03:36:06.916Z,100398.41
2023-03-21T03:38:37.812Z,100403.44
2023-03-21T03:41:08.616Z,100395.53
2023-03-21T03:43:40.482Z,100398.09
2023-03-21T03:46:12.257Z,100398.56
2023-03-21T03:48:46.401Z,100402.47
2023-03-21T03:51:16.721Z,100401.66
2023-03-21T03:53:46.971Z,100399.84
2023-03-21T03:56:14.711Z,100396.38
2023-03-21T03:58:45.781Z,100397.16
2023-03-21T04:01:13.989Z,100398.28
2023-03-21T04:03:49.877Z,100400.78
2023-03-21T04:06:18.582Z,100403.94
2023-03-21T04:08:47.186Z,100402.72
2023-03-21T04:11:14.768Z,100396.19
2023-03-21T04:13:42.116Z,100404.72
2023-03-21T04:16:10.135Z,100402.81
2023-03-21T04:18:39.063Z,100400.28
2023-03-21T04:21:08.228Z,100405.75
2023-03-21T04:23:35.752Z,100400.69
2023-03-21T04:26:05.089Z,100407.75
2023-03-21T04:28:33.392Z,100406.13
2023-03-21T04:31:06.903Z,100400.78
2023-03-21T04:33:38.477Z,100404.78
2023-03-21T04:36:06.593Z,100406.31
2023-03-21T04:38:33.960Z,100401.84
2023-03-21T04:41:02.066Z,100400.97
2023-03-21T04:43:30.900Z,100399.72
2023-03-21T04:45:58.224Z,100402.50
2023-03-21T04:48:26.106Z,100403.38
2023-03-21T04:50:53.427Z,100398.22
2023-03-21T04:53:21.120Z,100402.88
2023-03-21T04:55:51.032Z,100400.78
2023-03-21T04:58:20.260Z,100402.41
2023-03-21T05:00:49.378Z,100401.25
2023-03-21T05:03:19.713Z,100404.69
2023-03-21T05:05:47.646Z,100403.06
2023-03-21T05:08:15.598Z,100404.13
2023-03-21T05:10:43.246Z,100403.28
2023-03-21T05:13:10.792Z,100398.97
2023-03-21T05:15:38.842Z,100405.34
2023-03-21T05:18:11.654Z,100405.00
2023-03-21T05:20:42.530Z,100401.84
2023-03-21T05:23:10.815Z,100410.34
2023-03-21T05:25:38.518Z,100414.06
2023-03-21T05:28:06.081Z,100412.66
2023-03-21T05:30:33.544Z,100408.63
2023-03-21T05:33:01.156Z,100405.38
2023-03-21T05:35:29.812Z,100411.09
2023-03-21T05:37:57.259Z,100414.63
2023-03-21T05:40:24.541Z,100410.34
2023-03-21T05:42:51.819Z,100418.34
2023-03-21T05:45:19.349Z,100416.84
2023-03-21T05:47:46.699Z,100412.03
2023-03-21T05:50:14.388Z,100408.44
2023-03-21T05:52:43.012Z,100411.69
2023-03-21T05:55:10.531Z,100402.59
2023-03-21T05:57:40.754Z,100415.03
2023-03-21T06:00:09.411Z,100412.72
2023-03-21T06:02:36.785Z,100412.47
2023-03-21T06:05:04.270Z,100413.78
2023-03-21T06:07:31.548Z,100416.16
2023-03-21T06:10:00.442Z,100420.88
2023-03-21T06:12:27.866Z,100423.91
2023-03-21T06:14:55.207Z,100421.31
2023-03-21T06:17:22.473Z,100414.63
2023-03-21T06:19:49.745Z,100416.75
2023-03-21T06:22:17.197Z,100415.28
2023-03-21T06:24:44.474Z,100417.47
2023-03-21T06:27:13.055Z,100422.91
2023-03-21T06:29:41.196Z,100422.34
2023-03-21T06:32:08.493Z,100426.28
2023-03-21T06:34:37.030Z,100419.91
2023-03-21T06:37:05.755Z,100424.09
2023-03-21T06:39:33.723Z,100433.47
2023-03-21T06:42:01.148Z,100427.53
2023-03-21T06:44:30.183Z,100433.75
2023-03-21T06:46:57.477Z,100435.88
2023-03-21T06:49:25.951Z,100442.38
2023-03-21T06:51:53.248Z,100443.03
2023-03-21T06:54:20.983Z,100439.88
2023-03-21T06:56:48.358Z,100445.03
2023-03-21T06:59:15.702Z,100443.91
2023-03-21T07:01:44.411Z,100439.84
2023-03-21T07:04:11.823Z,100442.63
2023-03-21T07:06:39.181Z,100446.56
2023-03-21T07:09:07.097Z,100447.03
2023-03-21T07:11:34.398Z,100451.13
2023-03-21T07:14:01.657Z,100443.00
2023-03-21T07:16:28.945Z,100451.03
2023-03-21T07:18:57.650Z,100448.44
2023-03-21T07:21:24.955Z,100443.41
2023-03-21T07:23:52.259Z,100444.47
2023-03-21T07:26:19.520Z,100447.31
2023-03-21T07:28:46.784Z,100447.84
2023-03-21T07:31:15.044Z,100449.00
2023-03-21T07:33:42.391Z,100448.31
2023-03-21T07:36:13.380Z,100452.63
2023-03-21T07:38:41.161Z,100450.69
2023-03-21T07:41:08.592Z,100451.53
2023-03-21T07:43:37.226Z,100453.88
2023-03-21T07:46:06.862Z,100456.06
2023-03-21T07:48:34.282Z,100452.16
2023-03-21T07:51:02.330Z,100457.78
2023-03-21T07:53:31.077Z,100454.97
2023-03-21T07:55:58.365Z,100446.41
2023-03-21T07:58:26.240Z,100452.47
2023-03-21T08:00:53.877Z,100460.94
2023-03-21T08:03:21.244Z,100450.06
2023-03-21T08:05:48.564Z,100450.16
2023-03-21T08:08:15.831Z,100446.28
2023-03-21T08:10:44.729Z,100445.91
2023-03-21T08:13:13.755Z,100444.28
2023-03-21T08:15:42.192Z,100447.81
2023-03-21T08:18:09.950Z,100448.91
2023-03-21T08:20:37.217Z,100440.06
2023-03-21T08:23:04.702Z,100444.47
2023-03-21T08:25:32.109Z,100443.06
2023-03-21T08:28:00.761Z,100446.06
2023-03-21T08:30:29.108Z,100444.38
2023-03-21T08:33:01.394Z,100439.84
2023-03-21T08:35:29.655Z,100443.66
2023-03-21T08:37:57.218Z,100448.31
2023-03-21T08:40:24.590Z,100440.72
2023-03-21T08:42:52.174Z,100445.69
2023-03-21T08:45:20.932Z,100441.44
2023-03-21T08:47:48.367Z,100444.38
2023-03-21T08:50:17.328Z,100441.97
2023-03-21T08:52:44.805Z,100437.94
2023-03-21T08:55:12.800Z,100435.81
2023-03-21T08:57:40.154Z,100428.47
2023-03-21T09:00:12.168Z,100432.50
2023-03-21T09:02:41.187Z,100431.50
2023-03-21T09:05:10.170Z,100435.50
2023-03-21T09:07:37.529Z,100431.41
2023-03-21T09:10:21.871Z,100428.69
2023-03-21T09:12:50.014Z,100432.47
2023-03-21T09:15:18.487Z,100426.47
2023-03-21T09:17:50.037Z,100429.72
2023-03-21T09:20:18.788Z,100424.44
2023-03-21T09:22:46.642Z,100428.72
2023-03-21T09:25:13.989Z,100431.50
2023-03-21T09:27:42.210Z,100423.91
2023-03-21T09:30:10.586Z,100422.94
2023-03-21T09:32:37.940Z,100429.91
2023-03-21T09:35:07.870Z,100425.13
2023-03-21T09:37:38.289Z,100425.72
2023-03-21T09:40:07.946Z,100422.78
2023-03-21T09:42:38.475Z,100419.09
2023-03-21T09:45:11.358Z,100414.69
2023-03-21T09:47:45.284Z,100420.84
2023-03-21T09:50:17.142Z,100415.69
2023-03-21T09:52:48.207Z,100425.50
2023-03-21T09:55:19.931Z,100419.00
2023-03-21T09:57:48.562Z,100420.59
2023-03-21T10:00:20.592Z,100415.31
2023-03-21T10:02:51.778Z,100410.78
2023-03-21T10:05:21.696Z,100405.75
2023-03-21T10:07:53.677Z,100411.00
2023-03-21T10:10:23.631Z,100402.34
2023-03-21T10:12:52.933Z,100403.09
2023-03-21T10:15:21.383Z,100395.84
2023-03-21T10:17:52.882Z,100398.41
2023-03-21T10:20:23.186Z,100389.81
2023-03-21T10:22:51.710Z,100397.94
2023-03-21T10:25:20.749Z,100394.25
2023-03-21T10:27:49.485Z,100385.44
2023-03-21T10:30:24.263Z,100385.31
2023-03-21T10:32:52.279Z,100383.16
2023-03-21T10:35:20.121Z,100374.78
2023-03-21T10:37:48.949Z,100368.34
2023-03-21T10:40:17.478Z,100369.75
2023-03-21T10:42:45.601Z,100378.56
2023-03-21T10:45:17.522Z,100370.19
2023-03-21T10:47:48.149Z,100377.19
2023-03-21T10:50:17.519Z,100375.50
2023-03-21T10:52:47.349Z,100368.97
2023-03-21T10:55:21.350Z,100370.47
2023-03-21T10:57:48.933Z,100373.03
2023-03-21T11:00:21.690Z,100361.78
2023-03-21T11:02:49.904Z,100363.78
2023-03-21T11:05:20.902Z,100362.69
2023-03-21T11:07:48.294Z,100357.41
2023-03-21T11:10:19.925Z,100351.03
2023-03-21T11:12:58.673Z,100357.91
2023-03-21T11:15:28.631Z,100359.63
2023-03-21T11:17:55.927Z,100354.72
2023-03-21T11:20:23.718Z,100345.63
2023-03-21T11:22:55.289Z,100348.00
2023-03-21T11:25:23.967Z,100347.00
2023-03-21T11:27:52.881Z,100340.66
2023-03-21T11:30:23.235Z,100346.06
2023-03-21T11:32:53.134Z,100339.47
2023-03-21T11:35:21.925Z,100330.28
2023-03-21T11:37:53.176Z,100329.44
2023-03-21T11:40:21.638Z,100323.44
2023-03-21T11:42:51.575Z,100322.91
2023-03-21T11:45:20.152Z,100315.06
2023-03-21T11:47:50.646Z,100316.91
2023-03-21T11:50:19.325Z,100309.97
2023-03-21T11:52:52.203Z,100306.13
2023-03-21T11:55:24.238Z,100300.97
2023-03-21T11:57:58.014Z,100301.22
2023-03-21T12:00:30.575Z,100295.59
2023-03-21T12:03:07.459Z,100297.09
2023-03-21T12:05:36.441Z,100288.31
2023-03-21T12:08:08.227Z,100288.50
2023-03-21T12:10:39.087Z,100280.59
2023-03-21T12:13:14.315Z,100279.19
2023-03-21T12:15:44.457Z,100280.47
2023-03-21T12:18:17.557Z,100281.88
2023-03-21T12:20:47.589Z,100278.88
2023-03-21T12:23:30.558Z,100266.81
2023-03-21T12:26:04.725Z,100265.81
2023-03-21T12:28:34.985Z,100261.81
2023-03-21T12:31:08.387Z,100259.53
2023-03-21T12:33:43.129Z,100256.13
2023-03-21T12:36:18.421Z,100252.16
2023-03-21T12:38:54.305Z,100252.28
2023-03-21T12:41:24.128Z,100258.56
2023-03-21T12:43:55.433Z,100241.59
2023-03-21T12:46:25.260Z,100243.84
2023-03-21T12:48:57.548Z,100236.63
2023-03-21T12:51:27.324Z,100240.16
2023-03-21T12:54:01.568Z,100231.28
2023-03-21T12:56:31.482Z,100231.53
2023-03-21T12:59:01.027Z,100232.53
2023-03-21T13:01:29.457Z,100227.19
2023-03-21T13:04:07.431Z,100219.44
2023-03-21T13:06:36.577Z,100219.41
2023-03-21T13:09:07.535Z,100217.69
2023-03-21T13:11:35.290Z,100218.84
2023-03-21T13:14:04.521Z,100208.09
2023-03-21T13:16:34.543Z,100208.28
2023-03-21T13:19:06.528Z,100199.63
2023-03-21T13:21:41.005Z,100200.59
2023-03-21T13:24:20.168Z,100204.00
2023-03-21T13:26:50.804Z,100192.19
2023-03-21T13:29:24.202Z,100190.75
2023-03-21T13:31:55.212Z,100193.31
2023-03-21T13:34:26.683Z,100187.13
2023-03-21T13:36:54.172Z,100184.66
2023-03-21T13:39:25.161Z,100185.50
2023-03-21T13:41:53.233Z,100184.94
2023-03-21T13:44:24.175Z,100175.53
2023-03-21T13:46:56.988Z,100174.69
2023-03-21T13:49:30.132Z,100177.84
2023-03-21T13:51:58.423Z,100166.59
2023-03-21T13:54:29.710Z,100168.97
2023-03-21T13:57:00.966Z,100170.94
2023-03-21T13:59:42.492Z,100164.16
2023-03-21T14:02:29.058Z,100163.28
2023-03-21T14:05:05.403Z,100165.22
2023-03-21T14:07:34.662Z,100154.88
2023-03-21T14:10:05.051Z,100159.91
2023-03-21T14:12:37.721Z,100157.88
2023-03-21T14:15:15.770Z,100147.78
2023-03-21T14:17:50.335Z,100150.63
2023-03-21T14:20:21.249Z,100144.53
2023-03-21T14:22:48.918Z,100144.00
2023-03-21T14:25:17.237Z,100133.63
2023-03-21T14:27:46.583Z,100138.22
2023-03-21T14:30:20.904Z,100133.31
2023-03-21T14:32:48.573Z,100125.44
2023-03-21T14:35:16.063Z,100128.13
2023-03-21T14:37:46.257Z,100122.78
2023-03-21T14:40:19.993Z,100116.53
2023-03-21T14:42:48.182Z,100117.03
2023-03-21T14:45:18.866Z,100112.63
2023-03-21T14:47:55.407Z,100116.94
2023-03-21T14:50:23.503Z,100115.25
2023-03-21T14:52:53.735Z,100110.41
2023-03-21T14:55:21.190Z,100107.56
2023-03-21T14:57:49.358Z,100112.16
2023-03-21T15:00:21.551Z,100093.47
2023-03-21T15:02:48.927Z,100100.22
2023-03-21T15:05:17.810Z,100092.81
2023-03-21T15:07:53.042Z,100093.28
2023-03-21T15:10:22.059Z,100089.09
2023-03-21T15:12:53.101Z,100099.63
2023-03-21T15:15:20.983Z,100093.56
2023-03-21T15:17:48.420Z,100093.81
2023-03-21T15:20:18.257Z,100092.53
2023-03-21T15:22:46.793Z,100078.88
2023-03-21T15:25:18.309Z,100085.88
2023-03-21T15:27:47.115Z,100080.47
2023-03-21T15:30:20.192Z,100082.75
2023-03-21T15:32:48.559Z,100083.00
2023-03-21T15:35:16.898Z,100081.72
2023-03-21T15:37:44.269Z,100082.56
2023-03-21T15:40:20.327Z,100079.59
2023-03-21T15:42:48.958Z,100072.00
2023-03-21T15:45:19.841Z,100082.47
2023-03-21T15:47:54.817Z,100075.75
2023-03-21T15:50:30.260Z,100073.78
2023-03-21T15:53:00.201Z,100065.13
2023-03-21T15:55:29.424Z,100070.44
2023-03-21T15:58:00.944Z,100066.59
2023-03-21T16:00:32.868Z,100060.50
2023-03-21T16:03:04.861Z,100065.91
2023-03-21T16:05:33.148Z,100063.44
2023-03-21T16:08:03.740Z,100054.88
2023-03-21T16:10:32.406Z,100055.59
2023-03-21T16:13:01.060Z,100057.28
2023-03-21T16:15:28.375Z,100063.97
2023-03-21T16:17:57.485Z,100058.66
2023-03-21T16:20:26.074Z,100050.63
2023-03-21T16:22:53.335Z,100055.16
2023-03-21T16:25:21.690Z,100064.59
2023-03-21T16:27:49.589Z,100069.91
2023-03-21T16:30:20.411Z,100059.22
2023-03-21T16:32:47.774Z,100061.59
2023-03-21T16:35:15.312Z,100059.81
2023-03-21T16:37:42.890Z,100070.94
2023-03-21T16:40:17.315Z,100067.69
2023-03-21T16:42:45.465Z,100069.34
2023-03-21T16:45:12.924Z,100073.09
2023-03-21T16:47:41.576Z,100062.56
2023-03-21T16:50:20.994Z,100069.44
2023-03-21T16:52:48.368Z,100057.41
2023-03-21T16:55:15.769Z,100059.06
2023-03-21T16:57:44.002Z,100062.44
2023-03-21T17:00:15.170Z,100061.31
2023-03-21T17:02:43.920Z,100063.53
2023-03-21T17:05:12.243Z,100067.41
2023-03-21T17:07:39.624Z,100061.88
2023-03-21T17:10:16.305Z,100057.88
2023-03-21T17:12:43.652Z,100067.78
2023-03-21T17:15:11.250Z,100066.50
2023-03-21T17:17:38.507Z,100062.56
2023-03-21T17:20:15.351Z,100058.34
2023-03-21T17:22:42.615Z,100054.47
2023-03-21T17:25:10.720Z,100054.31
2023-03-21T17:27:38.350Z,100060.66
2023-03-21T17:30:13.007Z,100054.88
2023-03-21T17:32:40.303Z,100053.16
2023-03-21T17:35:07.779Z,100056.97
2023-03-21T17:37:38.436Z,100050.53
2023-03-21T17:40:07.007Z,100046.66
2023-03-21T17:42:34.641Z,100051.25
2023-03-21T17:45:01.927Z,100046.09
2023-03-21T17:47:30.939Z,100057.34
2023-03-21T17:49:58.330Z,100053.78
2023-03-21T17:52:27.206Z,100055.88
2023-03-21T17:54:55.962Z,100053.94
2023-03-21T17:57:23.301Z,100050.50
2023-03-21T17:59:50.667Z,100046.53
2023-03-21T18:02:18.307Z,100039.16
2023-03-21T18:04:45.606Z,100038.56
2023-03-21T18:07:18.462Z,100040.00
2023-03-21T18:09:49.523Z,100034.19
2023-03-21T18:12:18.137Z,100035.72
2023-03-21T18:14:46.121Z,100036.88
2023-03-21T18:17:13.520Z,100032.91
2023-03-21T18:19:40.788Z,100032.03
2023-03-21T18:22:08.197Z,100033.47
2023-03-21T18:24:35.725Z,100038.88
2023-03-21T18:27:02.989Z,100038.03
2023-03-21T18:32:20.187Z,100036.47
2023-03-21T18:34:49.160Z,100038.03
2023-03-21T18:37:16.460Z,100035.88
2023-03-21T18:39:45.230Z,100039.41
2023-03-21T18:42:19.150Z,100036.56
2023-03-21T18:44:52.169Z,100045.97
2023-03-21T18:47:20.076Z,100042.25
2023-03-21T18:50:13.586Z,100047.66
2023-03-21T18:52:34.650Z,100043.94
2023-03-21T18:55:02.686Z,100045.25
2023-03-21T18:57:38.893Z,100037.69
2023-03-21T19:00:13.192Z,100034.69
2023-03-21T19:02:45.518Z,100040.81
2023-03-21T19:05:14.768Z,100036.25
2023-03-21T19:07:42.069Z,100037.63
2023-03-21T19:10:18.159Z,100040.69
2023-03-21T19:12:46.542Z,100042.06
2023-03-21T19:15:17.681Z,100039.19
2023-03-21T19:18:26.499Z,100049.22
2023-03-21T19:20:32.299Z,100039.28
2023-03-21T19:22:59.577Z,100044.22
2023-03-21T19:25:27.133Z,100042.50
2023-03-21T19:27:54.402Z,100061.59
2023-03-21T19:30:23.030Z,100050.94
2023-03-21T19:32:50.617Z,100049.56
2023-03-21T19:35:18.689Z,100060.53
2023-03-21T19:37:46.497Z,100057.53
2023-03-21T19:40:14.275Z,100057.56
2023-03-21T19:42:42.841Z,100057.91
2023-03-21T19:45:11.141Z,100051.94
2023-03-21T19:47:39.801Z,100049.75
2023-03-21T19:52:55.578Z,100052.66
2023-03-21T19:55:22.879Z,100040.44
2023-03-21T19:57:50.537Z,100052.66
2023-03-21T20:00:18.685Z,100051.22
2023-03-21T20:02:47.430Z,100050.44
2023-03-21T20:05:15.887Z,100048.53
2023-03-21T20:07:43.159Z,100046.22
2023-03-21T20:10:11.691Z,100037.59
2023-03-21T20:12:39.327Z,100043.72
2023-03-21T20:15:17.293Z,100052.47
2023-03-21T20:17:48.491Z,100047.00
2023-03-21T20:20:17.902Z,100059.69
2023-03-21T20:25:33.652Z,100049.09
2023-03-21T20:28:15.216Z,100051.28
2023-03-21T20:30:47.087Z,100044.09
2023-03-21T20:33:15.810Z,100044.03
2023-03-21T20:36:29.465Z,100046.28
2023-03-21T20:38:31.280Z,100053.97
2023-03-21T20:40:58.556Z,100042.00
2023-03-21T20:44:20.405Z,100045.50
2023-03-21T20:46:15.714Z,100043.97
2023-03-21T20:48:48.829Z,100044.03
2023-03-21T20:52:36.853Z,100052.28
2023-03-21T20:54:04.784Z,100046.88
2023-03-21T20:56:32.081Z,100043.22
2023-03-21T20:59:14.968Z,100048.69
2023-03-21T21:01:45.335Z,100045.94
2023-03-21T21:04:19.220Z,100056.13
2023-03-21T21:06:46.674Z,100049.09
2023-03-21T21:09:13.937Z,100060.06
2023-03-21T21:14:28.693Z,100052.28
2023-03-21T21:16:55.993Z,100041.63
2023-03-21T21:19:24.587Z,100046.88
2023-03-21T21:21:51.839Z,100058.88
2023-03-21T21:24:19.081Z,100060.41
2023-03-21T21:26:46.829Z,100059.19
2023-03-21T21:29:16.605Z,100067.72
2023-03-21T21:31:44.489Z,100075.06
2023-03-21T21:34:11.784Z,100072.13
2023-03-21T21:36:40.477Z,100074.16
2023-03-21T21:39:08.627Z,100073.38
2023-03-21T21:41:36.598Z,100073.03
2023-03-21T21:44:03.895Z,100080.00
2023-03-21T21:46:31.557Z,100074.16
2023-03-21T21:48:59.626Z,100071.22
2023-03-21T21:51:27.101Z,100075.13
2023-03-21T21:53:56.135Z,100071.66
2023-03-21T21:56:24.207Z,100082.13
2023-03-21T21:58:52.094Z,100079.22
2023-03-21T22:01:20.651Z,100077.13
2023-03-21T22:03:47.968Z,100079.06
2023-03-21T22:06:15.970Z,100091.72
2023-03-21T22:08:46.755Z,100082.75
2023-03-21T22:11:15.924Z,100086.28
2023-03-21T22:13:44.449Z,100086.19
2023-03-21T22:16:12.037Z,100080.41
2023-03-21T22:18:39.423Z,100094.22
2023-03-21T22:21:07.130Z,100096.72
2023-03-21T22:23:34.463Z,100100.72
2023-03-21T22:26:01.926Z,100101.72
2023-03-21T22:28:31.267Z,100110.19
2023-03-21T22:30:58.549Z,100108.44
2023-03-21T22:33:25.805Z,100108.06
2023-03-21T22:35:53.557Z,100110.03
2023-03-21T22:38:24.170Z,100099.28
2023-03-21T22:40:54.838Z,100101.16
2023-03-21T22:43:22.116Z,100100.16
2023-03-21T22:45:50.887Z,100098.34
2023-03-21T22:48:18.208Z,100098.28
2023-03-21T22:50:45.805Z,100096.41
2023-03-21T22:53:13.078Z,100097.31
2023-03-21T22:55:40.434Z,100091.84
2023-03-21T22:58:07.749Z,100100.75
2023-03-21T23:00:35.012Z,100101.97
2023-03-21T23:03:03.611Z,100094.41
2023-03-21T23:05:30.900Z,100088.78
2023-03-21T23:07:58.182Z,100092.69
2023-03-21T23:10:25.525Z,100089.81
2023-03-21T23:12:52.857Z,100088.09
2023-03-21T23:15:20.168Z,100084.44
2023-03-21T23:17:47.936Z,100080.75
2023-03-21T23:20:16.724Z,100080.53
2023-03-21T23:22:44.021Z,100081.66
2023-03-21T23:25:11.889Z,100081.53
2023-03-21T23:27:39.179Z,100073.97
2023-03-21T23:30:07.238Z,100077.13
2023-03-21T23:32:34.640Z,100067.47
2023-03-21T23:35:01.947Z,100077.00
2023-03-21T23:37:32.682Z,100073.34
2023-03-21T23:39:59.976Z,100063.72
2023-03-21T23:42:29.501Z,100072.25
2023-03-21T23:44:57.086Z,100070.19
2023-03-21T23:47:24.437Z,100070.19
2023-03-21T23:49:52.801Z,100068.59
2023-03-21T23:52:20.235Z,100069.47
2023-03-21T23:54:48.831Z,100077.75
2023-03-21T23:57:17.190Z,100080.31
2023-03-21T23:59:46.568Z,100074.44
